createdAt,value
2023-04-30T00:02:10.993Z,101827.66
2023-04-30T00:04:37.955Z,101828.63
2023-04-30T00:07:04.882Z,101826.13
2023-04-30T00:09:31.750Z,101827.41
2023-04-30T00:11:58.568Z,101817.94
2023-04-30T00:14:25.566Z,101823.41
2023-04-30T00:16:52.410Z,101820.22
2023-04-30T00:19:19.361Z,101825.50
2023-04-30T00:21:46.358Z,101819.69
2023-04-30T00:24:13.161Z,101820.66
2023-04-30T00:26:40.093Z,101826.97
2023-04-30T00:29:07.361Z,101828.09
2023-04-30T00:31:34.171Z,101826.41
2023-04-30T00:34:01.093Z,101825.56
2023-04-30T00:36:27.908Z,101825.19
2023-04-30T00:38:54.700Z,101816.41
2023-04-30T00:41:21.621Z,101810.31
2023-04-30T00:43:48.437Z,101813.94
2023-04-30T00:46:15.286Z,101818.84
2023-04-30T00:48:42.296Z,101818.28
2023-04-30T00:51:09.190Z,101819.44
2023-04-30T00:53:36.668Z,101814.44
2023-04-30T00:56:04.054Z,101819.88
2023-04-30T00:58:31.144Z,101812.09
2023-04-30T01:01:01.940Z,101815.56
2023-04-30T01:03:29.158Z,101817.38
2023-04-30T01:05:56.078Z,101816.69
2023-04-30T01:08:22.988Z,101804.91
2023-04-30T01:10:54.415Z,101804.19
2023-04-30T01:13:30.857Z,101805.47
2023-04-30T01:16:01.002Z,101803.28
2023-04-30T01:18:31.830Z,101801.75
2023-04-30T01:21:02.271Z,101807.19
2023-04-30T01:23:38.292Z,101808.19
2023-04-30T01:26:14.290Z,101815.13
2023-04-30T01:28:44.232Z,101802.06
2023-04-30T01:31:15.126Z,101804.00
2023-04-30T01:33:42.040Z,101800.69
2023-04-30T01:36:17.533Z,101803.78
2023-04-30T01:38:54.312Z,101809.31
2023-04-30T01:41:21.934Z,101805.44
2023-04-30T01:43:56.424Z,101801.28
2023-04-30T01:46:27.772Z,101805.03
2023-04-30T01:49:04.290Z,101798.66
2023-04-30T01:51:33.079Z,101808.66
2023-04-30T01:54:03.639Z,101804.22
2023-04-30T01:56:38.632Z,101804.22
2023-04-30T01:59:06.262Z,101791.97
2023-04-30T02:01:33.614Z,101788.94
2023-04-30T02:04:00.744Z,101791.75
2023-04-30T02:06:28.869Z,101790.75
2023-04-30T02:08:57.036Z,101786.59
2023-04-30T02:11:24.955Z,101789.25
2023-04-30T02:13:51.804Z,101790.91
2023-04-30T02:16:18.785Z,101794.53
2023-04-30T02:18:46.037Z,101787.03
2023-04-30T02:21:12.955Z,101794.81
2023-04-30T02:23:39.793Z,101794.00
2023-04-30T02:26:06.577Z,101788.97
2023-04-30T02:28:33.449Z,101802.19
2023-04-30T02:31:00.234Z,101792.75
2023-04-30T02:33:27.073Z,101790.13
2023-04-30T02:35:55.509Z,101791.78
2023-04-30T02:38:22.303Z,101787.59
2023-04-30T02:40:49.240Z,101782.47
2023-04-30T02:43:15.999Z,101782.75
2023-04-30T02:45:43.019Z,101781.22
2023-04-30T02:48:09.959Z,101778.03
2023-04-30T02:50:36.778Z,101775.41
2023-04-30T02:53:03.645Z,101768.59
2023-04-30T02:55:31.391Z,101771.25
2023-04-30T02:57:58.215Z,101772.34
2023-04-30T03:00:25.046Z,101775.00
2023-04-30T03:02:51.946Z,101775.28
2023-04-30T03:05:18.971Z,101766.66
2023-04-30T03:07:45.785Z,101772.09
2023-04-30T03:10:12.626Z,101774.72
2023-04-30T03:12:39.478Z,101774.03
2023-04-30T03:15:07.039Z,101769.88
2023-04-30T03:17:34.012Z,101771.97
2023-04-30T03:20:00.870Z,101772.94
2023-04-30T03:22:27.773Z,101777.38
2023-04-30T03:24:54.574Z,101767.13
2023-04-30T03:27:21.325Z,101773.22
2023-04-30T03:29:49.329Z,101774.19
2023-04-30T03:32:16.178Z,101778.09
2023-04-30T03:34:43.048Z,101771.28
2023-04-30T03:37:09.883Z,101771.44
2023-04-30T03:39:36.658Z,101767.25
2023-04-30T03:42:03.890Z,101766.44
2023-04-30T03:44:30.698Z,101768.09
2023-04-30T03:46:57.600Z,101763.66
2023-04-30T03:49:24.417Z,101767.97
2023-04-30T03:51:51.332Z,101769.06
2023-04-30T03:54:18.193Z,101770.03
2023-04-30T03:56:45.092Z,101766.19
2023-04-30T03:59:12.008Z,101770.03
2023-04-30T04:01:38.824Z,101766.56
2023-04-30T04:04:05.811Z,101761.28
2023-04-30T04:06:32.793Z,101765.91
2023-04-30T04:08:59.671Z,101770.47
2023-04-30T04:11:26.743Z,101770.47
2023-04-30T04:13:53.532Z,101768.97
2023-04-30T04:16:20.684Z,101763.69
2023-04-30T04:18:47.564Z,101763.81
2023-04-30T04:21:14.419Z,101763.09
2023-04-30T04:23:44.309Z,101763.53
2023-04-30T04:26:11.145Z,101760.88
2023-04-30T04:28:39.500Z,101757.56
2023-04-30T04:31:06.364Z,101763.69
2023-04-30T04:33:33.461Z,101765.75
2023-04-30T04:36:00.255Z,101759.38
2023-04-30T04:38:27.150Z,101768.97
2023-04-30T04:40:54.698Z,101776.72
2023-04-30T04:43:23.978Z,101772.44
2023-04-30T04:45:50.957Z,101768.38
2023-04-30T04:48:17.772Z,101767.56
2023-04-30T04:50:44.628Z,101761.31
2023-04-30T04:53:11.468Z,101757.84
2023-04-30T04:55:38.276Z,101756.31
2023-04-30T04:58:05.064Z,101765.91
2023-04-30T05:00:31.876Z,101766.59
2023-04-30T05:02:59.002Z,101766.59
2023-04-30T05:05:26.159Z,101773.41
2023-04-30T05:07:55.299Z,101766.75
2023-04-30T05:10:22.282Z,101760.22
2023-04-30T05:12:49.060Z,101768.66
2023-04-30T05:15:15.949Z,101764.22
2023-04-30T05:17:42.915Z,101765.06
2023-04-30T05:20:10.367Z,101763.25
2023-04-30T05:22:37.160Z,101762.31
2023-04-30T05:25:04.617Z,101756.03
2023-04-30T05:27:31.382Z,101764.78
2023-04-30T05:29:58.158Z,101765.19
2023-04-30T05:32:25.070Z,101760.63
2023-04-30T05:34:52.666Z,101767.16
2023-04-30T05:37:20.881Z,101767.81
2023-04-30T05:39:47.674Z,101768.81
2023-04-30T05:42:14.521Z,101763.38
2023-04-30T05:44:41.764Z,101772.00
2023-04-30T05:47:08.596Z,101768.22
2023-04-30T05:49:37.711Z,101775.06
2023-04-30T05:52:04.642Z,101767.53
2023-04-30T05:54:31.647Z,101773.22
2023-04-30T05:56:58.505Z,101775.44
2023-04-30T05:59:26.251Z,101780.59
2023-04-30T06:01:53.249Z,101772.78
2023-04-30T06:04:20.258Z,101774.03
2023-04-30T06:06:47.109Z,101777.06
2023-04-30T06:09:14.103Z,101771.88
2023-04-30T06:11:42.502Z,101768.41
2023-04-30T06:14:10.481Z,101766.97
2023-04-30T06:16:38.403Z,101768.06
2023-04-30T06:19:05.316Z,101770.13
2023-04-30T06:21:32.266Z,101770.66
2023-04-30T06:23:59.044Z,101769.53
2023-04-30T06:26:25.855Z,101775.31
2023-04-30T06:28:52.749Z,101776.09
2023-04-30T06:31:19.609Z,101782.78
2023-04-30T06:33:46.452Z,101782.81
2023-04-30T06:36:13.693Z,101783.34
2023-04-30T06:38:40.835Z,101780.59
2023-04-30T06:41:07.762Z,101781.19
2023-04-30T06:43:34.605Z,101778.91
2023-04-30T06:46:01.536Z,101783.31
2023-04-30T06:48:28.453Z,101779.03
2023-04-30T06:50:55.326Z,101786.41
2023-04-30T06:53:22.189Z,101790.91
2023-04-30T06:55:49.086Z,101792.91
2023-04-30T06:58:15.940Z,101790.22
2023-04-30T07:00:43.358Z,101792.38
2023-04-30T07:03:10.336Z,101794.00
2023-04-30T07:05:37.445Z,101799.84
2023-04-30T07:08:04.729Z,101795.91
2023-04-30T07:10:31.999Z,101800.38
2023-04-30T07:12:59.741Z,101795.22
2023-04-30T07:15:26.892Z,101793.88
2023-04-30T07:17:53.874Z,101798.72
2023-04-30T07:20:20.755Z,101793.06
2023-04-30T07:22:47.589Z,101793.56
2023-04-30T07:25:14.488Z,101786.06
2023-04-30T07:27:41.812Z,101792.09
2023-04-30T07:30:11.078Z,101789.44
2023-04-30T07:32:38.759Z,101792.09
2023-04-30T07:35:06.622Z,101790.59
2023-04-30T07:37:35.397Z,101784.09
2023-04-30T07:40:03.921Z,101786.06
2023-04-30T07:42:30.786Z,101772.63
2023-04-30T07:44:57.824Z,101778.63
2023-04-30T07:47:25.932Z,101783.50
2023-04-30T07:49:53.194Z,101780.50
2023-04-30T07:52:23.566Z,101784.25
2023-04-30T07:54:50.439Z,101787.19
2023-04-30T07:57:17.621Z,101793.28
2023-04-30T07:59:44.465Z,101788.31
2023-04-30T08:02:11.339Z,101789.44
2023-04-30T08:04:38.244Z,101791.56
2023-04-30T08:07:05.092Z,101797.53
2023-04-30T08:09:32.056Z,101792.56
2023-04-30T08:11:58.932Z,101793.03
2023-04-30T08:14:25.836Z,101792.50
2023-04-30T08:16:53.047Z,101788.78
2023-04-30T08:19:19.902Z,101785.97
2023-04-30T08:21:46.864Z,101794.09
2023-04-30T08:24:13.885Z,101788.84
2023-04-30T08:26:40.815Z,101796.19
2023-04-30T08:29:08.830Z,101788.19
2023-04-30T08:31:36.148Z,101786.53
2023-04-30T08:34:03.080Z,101788.72
2023-04-30T08:36:30.024Z,101784.25
2023-04-30T08:38:57.924Z,101784.69
2023-04-30T08:41:26.668Z,101780.69
2023-04-30T08:43:54.214Z,101776.28
2023-04-30T08:46:21.266Z,101776.13
2023-04-30T08:48:49.311Z,101774.44
2023-04-30T08:51:17.605Z,101772.31
2023-04-30T08:53:45.014Z,101776.28
2023-04-30T08:56:11.904Z,101766.09
2023-04-30T08:58:39.898Z,101778.03
2023-04-30T09:01:11.149Z,101771.69
2023-04-30T09:03:38.330Z,101774.28
2023-04-30T09:06:05.434Z,101782.03
2023-04-30T09:08:42.102Z,101770.88
2023-04-30T09:11:19.213Z,101777.75
2023-04-30T09:13:46.160Z,101761.88
2023-04-30T09:16:13.202Z,101766.44
2023-04-30T09:18:42.146Z,101760.63
2023-04-30T09:21:10.375Z,101766.41
2023-04-30T09:23:37.324Z,101766.53
2023-04-30T09:26:04.351Z,101761.47
2023-04-30T09:28:32.147Z,101759.44
2023-04-30T09:30:59.086Z,101759.81
2023-04-30T09:33:25.940Z,101751.53
2023-04-30T09:35:52.985Z,101750.16
2023-04-30T09:38:29.816Z,101747.91
2023-04-30T09:40:59.101Z,101745.34
2023-04-30T09:43:26.392Z,101747.84
2023-04-30T09:45:53.285Z,101744.78
2023-04-30T09:48:24.347Z,101750.13
2023-04-30T09:50:52.399Z,101743.59
2023-04-30T09:53:20.563Z,101746.06
2023-04-30T09:55:50.007Z,101751.22
2023-04-30T09:58:18.109Z,101742.78
2023-04-30T10:00:46.691Z,101746.72
2023-04-30T10:03:15.329Z,101742.22
2023-04-30T10:05:43.365Z,101738.91
2023-04-30T10:08:13.782Z,101748.56
2023-04-30T10:10:43.606Z,101733.47
2023-04-30T10:13:12.010Z,101739.91
2023-04-30T10:15:40.856Z,101733.34
2023-04-30T10:18:12.145Z,101733.53
2023-04-30T10:20:39.439Z,101727.84
2023-04-30T10:23:07.617Z,101736.00
2023-04-30T10:25:34.712Z,101725.16
2023-04-30T10:28:04.505Z,101732.16
2023-04-30T10:30:32.396Z,101726.34
2023-04-30T10:32:59.506Z,101727.38
2023-04-30T10:35:29.181Z,101728.84
2023-04-30T10:38:05.975Z,101717.97
2023-04-30T10:40:39.950Z,101720.44
2023-04-30T10:43:06.886Z,101715.66
2023-04-30T10:45:35.253Z,101709.31
2023-04-30T10:48:03.845Z,101712.16
2023-04-30T10:50:31.152Z,101702.31
2023-04-30T10:53:07.597Z,101705.81
2023-04-30T10:55:39.952Z,101703.38
2023-04-30T10:58:23.370Z,101692.94
2023-04-30T11:00:59.684Z,101688.88
2023-04-30T11:03:28.762Z,101698.44
2023-04-30T11:05:55.982Z,101688.09
2023-04-30T11:08:32.418Z,101688.16
2023-04-30T11:11:02.161Z,101685.28
2023-04-30T11:13:29.103Z,101682.81
2023-04-30T11:16:02.922Z,101679.34
2023-04-30T11:18:30.043Z,101669.66
2023-04-30T11:20:57.867Z,101678.03
2023-04-30T11:23:38.488Z,101671.25
2023-04-30T11:26:07.998Z,101668.00
2023-04-30T11:28:36.191Z,101671.31
2023-04-30T11:31:03.943Z,101664.50
2023-04-30T11:33:31.890Z,101657.50
2023-04-30T11:36:00.051Z,101650.38
2023-04-30T11:38:28.598Z,101652.03
2023-04-30T11:40:55.873Z,101654.97
2023-04-30T11:43:24.558Z,101650.63
2023-04-30T11:46:00.511Z,101652.41
2023-04-30T11:48:35.281Z,101646.88
2023-04-30T11:51:04.026Z,101644.03
2023-04-30T11:53:31.555Z,101645.47
2023-04-30T11:56:02.694Z,101643.63
2023-04-30T11:58:33.891Z,101632.38
2023-04-30T12:01:01.893Z,101632.00
2023-04-30T12:03:29.743Z,101639.03
2023-04-30T12:05:56.923Z,101633.28
2023-04-30T12:08:24.621Z,101626.56
2023-04-30T12:10:51.438Z,101631.50
2023-04-30T12:13:18.486Z,101635.25
2023-04-30T12:15:57.999Z,101618.56
2023-04-30T12:18:24.945Z,101627.66
2023-04-30T12:20:52.128Z,101631.41
2023-04-30T12:23:19.784Z,101615.78
2023-04-30T12:25:48.207Z,101625.50
2023-04-30T12:28:15.329Z,101628.44
2023-04-30T12:30:43.548Z,101629.25
2023-04-30T12:33:11.219Z,101632.13
2023-04-30T12:35:42.821Z,101629.84
2023-04-30T12:38:10.048Z,101617.91
2023-04-30T12:40:37.421Z,101620.34
2023-04-30T12:43:05.591Z,101623.97
2023-04-30T12:45:42.480Z,101609.97
2023-04-30T12:48:09.777Z,101613.47
2023-04-30T12:50:36.885Z,101612.28
2023-04-30T12:53:04.232Z,101609.00
2023-04-30T12:55:31.589Z,101605.09
2023-04-30T12:58:06.731Z,101606.75
2023-04-30T13:00:43.426Z,101596.88
2023-04-30T13:03:10.679Z,101606.41
2023-04-30T13:05:37.744Z,101610.16
2023-04-30T13:08:06.703Z,101609.16
2023-04-30T13:10:33.655Z,101598.88
2023-04-30T13:13:00.527Z,101598.03
2023-04-30T13:15:27.816Z,101603.19
2023-04-30T13:17:54.789Z,101602.00
2023-04-30T13:20:22.089Z,101597.91
2023-04-30T13:22:48.988Z,101589.28
2023-04-30T13:25:16.016Z,101596.28
2023-04-30T13:27:43.203Z,101597.94
2023-04-30T13:30:10.840Z,101596.69
2023-04-30T13:32:37.800Z,101590.16
2023-04-30T13:35:05.042Z,101589.69
2023-04-30T13:37:32.446Z,101590.34
2023-04-30T13:40:01.796Z,101587.66
2023-04-30T13:42:28.820Z,101589.72
2023-04-30T13:44:55.798Z,101583.38
2023-04-30T13:47:22.875Z,101582.72
2023-04-30T13:49:49.779Z,101580.25
2023-04-30T13:52:16.920Z,101581.06
2023-04-30T13:54:44.002Z,101573.03
2023-04-30T13:57:10.956Z,101570.16
2023-04-30T13:59:38.884Z,101565.44
2023-04-30T14:02:05.946Z,101571.84
2023-04-30T14:04:32.950Z,101565.88
2023-04-30T14:07:00.127Z,101560.94
2023-04-30T14:09:27.530Z,101558.28
2023-04-30T14:11:56.543Z,101563.84
2023-04-30T14:14:23.700Z,101553.16
2023-04-30T14:16:50.829Z,101554.78
2023-04-30T14:19:17.876Z,101547.16
2023-04-30T14:21:44.928Z,101552.28
2023-04-30T14:24:13.289Z,101538.72
2023-04-30T14:26:41.564Z,101542.00
2023-04-30T14:29:08.886Z,101544.91
2023-04-30T14:31:35.815Z,101543.25
2023-04-30T14:34:03.135Z,101544.72
2023-04-30T14:36:30.182Z,101532.75
2023-04-30T14:38:56.985Z,101539.34
2023-04-30T14:41:23.911Z,101538.16
2023-04-30T14:43:50.746Z,101538.56
2023-04-30T14:46:18.424Z,101535.47
2023-04-30T14:48:45.719Z,101529.47
2023-04-30T14:51:12.583Z,101528.22
2023-04-30T14:53:39.708Z,101528.03
2023-04-30T14:56:07.517Z,101531.53
2023-04-30T14:58:34.427Z,101524.91
2023-04-30T15:01:01.792Z,101527.16
2023-04-30T15:03:29.120Z,101527.97
2023-04-30T15:05:56.454Z,101516.44
2023-04-30T15:08:23.469Z,101515.19
2023-04-30T15:10:50.474Z,101508.59
2023-04-30T15:13:17.323Z,101505.91
2023-04-30T15:15:47.321Z,101498.91
2023-04-30T15:18:14.785Z,101502.38
2023-04-30T15:20:42.019Z,101490.00
2023-04-30T15:23:09.194Z,101502.38
2023-04-30T15:25:36.265Z,101495.38
2023-04-30T15:28:03.638Z,101492.28
2023-04-30T15:30:30.520Z,101494.94
2023-04-30T15:32:57.750Z,101486.50
2023-04-30T15:35:24.961Z,101487.13
2023-04-30T15:37:51.919Z,101481.78
2023-04-30T15:40:19.297Z,101478.47
2023-04-30T15:42:46.604Z,101485.22
2023-04-30T15:45:13.613Z,101475.97
2023-04-30T15:47:41.647Z,101478.22
2023-04-30T15:50:09.026Z,101480.44
2023-04-30T15:52:37.643Z,101469.97
2023-04-30T15:55:06.798Z,101469.34
2023-04-30T15:57:33.637Z,101469.75
2023-04-30T16:00:00.734Z,101467.66
2023-04-30T16:02:27.824Z,101471.75
2023-04-30T16:04:54.894Z,101466.63
2023-04-30T16:07:21.796Z,101471.31
2023-04-30T16:09:49.709Z,101463.31
2023-04-30T16:12:16.823Z,101469.84
2023-04-30T16:14:43.787Z,101469.63
2023-04-30T16:17:11.024Z,101457.50
2023-04-30T16:19:38.005Z,101454.19
2023-04-30T16:22:04.923Z,101457.47
2023-04-30T16:24:31.796Z,101460.09
2023-04-30T16:26:58.767Z,101462.53
2023-04-30T16:29:26.301Z,101451.63
2023-04-30T16:31:53.861Z,101455.50
2023-04-30T16:34:20.879Z,101454.06
2023-04-30T16:36:47.753Z,101456.06
2023-04-30T16:39:17.038Z,101454.34
2023-04-30T16:41:44.131Z,101446.09
2023-04-30T16:44:11.657Z,101448.53
2023-04-30T16:46:38.637Z,101452.78
2023-04-30T16:49:05.696Z,101447.84
2023-04-30T16:51:33.463Z,101454.41
2023-04-30T16:54:00.386Z,101451.94
2023-04-30T16:56:27.357Z,101449.63
2023-04-30T16:58:54.496Z,101446.53
2023-04-30T17:01:21.436Z,101448.38
2023-04-30T17:03:48.588Z,101455.19
2023-04-30T17:06:15.677Z,101443.44
2023-04-30T17:08:42.600Z,101450.38
2023-04-30T17:11:12.127Z,101440.47
2023-04-30T17:13:39.087Z,101452.13
2023-04-30T17:16:08.352Z,101447.84
2023-04-30T17:18:35.418Z,101444.72
2023-04-30T17:21:02.320Z,101444.28
2023-04-30T17:23:29.187Z,101433.38
2023-04-30T17:25:57.735Z,101434.13
2023-04-30T17:28:24.777Z,101437.34
2023-04-30T17:30:51.714Z,101435.69
2023-04-30T17:33:18.619Z,101429.53
2023-04-30T17:35:45.553Z,101429.09
2023-04-30T17:38:12.458Z,101428.47
2023-04-30T17:40:39.511Z,101429.69
2023-04-30T17:43:07.268Z,101432.53
2023-04-30T17:45:34.199Z,101428.75
2023-04-30T17:48:01.253Z,101425.22
2023-04-30T17:50:28.203Z,101420.88
2023-04-30T17:52:55.239Z,101433.78
2023-04-30T17:55:22.336Z,101428.81
2023-04-30T17:57:49.223Z,101428.75
2023-04-30T18:00:17.661Z,101426.63
2023-04-30T18:02:44.895Z,101426.38
2023-04-30T18:05:12.142Z,101425.91
2023-04-30T18:07:39.027Z,101434.31
2023-04-30T18:10:06.627Z,101429.97
2023-04-30T18:12:33.701Z,101421.72
2023-04-30T18:15:01.037Z,101426.59
2023-04-30T18:17:28.072Z,101430.84
2023-04-30T18:19:55.169Z,101425.50
2023-04-30T18:22:22.462Z,101430.38
2023-04-30T18:24:49.523Z,101432.56
2023-04-30T18:27:16.566Z,101432.13
2023-04-30T18:29:44.558Z,101428.38
2023-04-30T18:32:13.051Z,101422.94
2023-04-30T18:34:40.176Z,101429.84
2023-04-30T18:37:07.068Z,101430.22
2023-04-30T18:39:33.971Z,101432.88
2023-04-30T18:42:00.901Z,101435.72
2023-04-30T18:44:30.662Z,101429.38
2023-04-30T18:46:57.601Z,101432.22
2023-04-30T18:49:24.522Z,101427.28
2023-04-30T18:51:51.455Z,101424.63
2023-04-30T18:54:18.816Z,101418.47
2023-04-30T18:56:45.737Z,101428.13
2023-04-30T18:59:12.712Z,101424.44
2023-04-30T19:01:39.729Z,101434.88
2023-04-30T19:04:06.846Z,101428.13
2023-04-30T19:06:34.778Z,101419.16
2023-04-30T19:09:01.768Z,101427.31
2023-04-30T19:11:28.984Z,101427.25
2023-04-30T19:13:56.054Z,101428.63
2023-04-30T19:16:23.108Z,101426.97
2023-04-30T19:18:49.996Z,101430.81
2023-04-30T19:21:18.486Z,101429.97
2023-04-30T19:23:45.650Z,101428.97
2023-04-30T19:26:12.636Z,101429.16
2023-04-30T19:28:39.500Z,101424.03
2023-04-30T19:31:06.459Z,101428.34
2023-04-30T19:33:39.720Z,101426.03
2023-04-30T19:36:06.804Z,101422.75
2023-04-30T19:38:33.751Z,101421.09
2023-04-30T19:41:01.140Z,101428.41
2023-04-30T19:43:41.835Z,101428.31
2023-04-30T19:46:17.567Z,101436.00
2023-04-30T19:48:51.133Z,101434.38
2023-04-30T19:51:24.047Z,101436.84
2023-04-30T19:54:01.301Z,101442.97
2023-04-30T19:56:36.573Z,101437.66
2023-04-30T19:59:09.391Z,101441.16
2023-04-30T20:04:28.787Z,101449.22
2023-04-30T20:10:14.536Z,101460.72
2023-04-30T20:12:52.934Z,101452.31
2023-04-30T20:15:33.949Z,101457.78
2023-04-30T20:18:10.875Z,101452.66
2023-04-30T20:20:40.241Z,101454.13
2023-04-30T20:23:19.223Z,101452.47
2023-04-30T20:26:08.221Z,101447.34
2023-04-30T20:28:38.669Z,101455.66
2023-04-30T20:31:08.263Z,101454.50
2023-04-30T20:33:35.318Z,101457.16
2023-04-30T20:36:03.467Z,101453.66
2023-04-30T20:38:30.731Z,101455.66
2023-04-30T20:40:59.019Z,101451.00
2023-04-30T20:43:26.055Z,101454.50
2023-04-30T20:45:56.630Z,101452.84
2023-04-30T20:48:23.613Z,101452.38
2023-04-30T20:50:51.002Z,101453.19
2023-04-30T20:53:18.392Z,101448.06
2023-04-30T20:55:45.229Z,101453.53
2023-04-30T20:58:12.315Z,101455.53
2023-04-30T21:00:39.468Z,101448.59
2023-04-30T21:03:06.884Z,101452.25
2023-04-30T21:05:34.611Z,101451.59
2023-04-30T21:08:01.916Z,101452.59
2023-04-30T21:10:36.776Z,101456.44
2023-04-30T21:13:05.895Z,101448.47
2023-04-30T21:15:34.681Z,101451.97
2023-04-30T21:18:01.868Z,101451.13
2023-04-30T21:20:28.983Z,101450.47
2023-04-30T21:22:56.966Z,101445.34
2023-04-30T21:25:23.844Z,101439.22
2023-04-30T21:27:50.774Z,101438.56
2023-04-30T21:30:17.902Z,101437.72
2023-04-30T21:32:47.319Z,101436.88
2023-04-30T21:35:14.733Z,101437.09
2023-04-30T21:37:42.577Z,101426.63
2023-04-30T21:40:09.875Z,101438.63
2023-04-30T21:42:37.062Z,101430.00
2023-04-30T21:45:04.161Z,101424.50
2023-04-30T21:47:32.011Z,101421.47
2023-04-30T21:49:59.385Z,101424.97
2023-04-30T21:52:26.578Z,101419.00
2023-04-30T21:54:53.480Z,101411.38
2023-04-30T21:57:20.511Z,101417.06
2023-04-30T21:59:47.400Z,101410.22
2023-04-30T22:02:23.253Z,101412.25
2023-04-30T22:04:51.088Z,101416.91
2023-04-30T22:07:17.895Z,101415.41
2023-04-30T22:09:45.268Z,101412.13
2023-04-30T22:12:12.506Z,101411.31
2023-04-30T22:14:39.551Z,101403.50
2023-04-30T22:17:06.953Z,101397.19
2023-04-30T22:19:33.812Z,101397.03
2023-04-30T22:22:00.823Z,101392.03
2023-04-30T22:24:27.676Z,101387.75
2023-04-30T22:26:55.039Z,101388.75
2023-04-30T22:29:21.885Z,101388.91
2023-04-30T22:31:48.841Z,101398.09
2023-04-30T22:34:18.237Z,101391.75
2023-04-30T22:36:46.314Z,101389.91
2023-04-30T22:39:13.712Z,101390.13
2023-04-30T22:41:40.906Z,101390.28
2023-04-30T22:44:07.922Z,101383.31
2023-04-30T22:46:36.980Z,101391.28
2023-04-30T22:49:04.175Z,101385.31
2023-04-30T22:51:32.007Z,101381.03
2023-04-30T22:53:58.932Z,101387.97
2023-04-30T22:56:25.784Z,101386.34
2023-04-30T22:58:52.635Z,101384.00
2023-04-30T23:01:20.427Z,101380.22
2023-04-30T23:03:47.372Z,101383.25
2023-04-30T23:06:17.104Z,101383.41
2023-04-30T23:08:44.648Z,101378.09
2023-04-30T23:11:11.589Z,101377.94
2023-04-30T23:13:38.964Z,101374.44
2023-04-30T23:16:09.028Z,101386.91
2023-04-30T23:18:37.559Z,101388.56
2023-04-30T23:21:05.554Z,101386.91
2023-04-30T23:23:33.044Z,101375.28
2023-04-30T23:25:59.844Z,101375.44
2023-04-30T23:28:26.752Z,101375.66
2023-04-30T23:30:54.591Z,101381.28
2023-04-30T23:33:21.925Z,101371.03
2023-04-30T23:35:49.240Z,101374.84
2023-04-30T23:38:16.633Z,101379.34
2023-04-30T23:40:44.139Z,101372.56
2023-04-30T23:43:12.893Z,101364.22
2023-04-30T23:45:42.451Z,101370.53
2023-04-30T23:48:10.685Z,101366.59
2023-04-30T23:50:38.579Z,101371.44
2023-04-30T23:53:05.399Z,101362.16
2023-04-30T23:55:32.266Z,101364.31
2023-04-30T23:57:59.083Z,101366.66
